Helmsdale, United Kingdom
Current Conditions -  °F | °C
As of 11:50 PM on Saturday 25 Oct 2014 (Local Time) from EGQS Reporting Station
Few Clouds Few Clouds  
Wind Chill: 11°   Ceiling: Unl
Heat Index: 11°   Visibility: 6mi
Dew Point:   Wind: 32mph
Humidity: 67%   Direction: 240°WSW
Pressure: 29.44"   Gusts: 47mph
Location:  58.12°N, 3.66°W
Report Text: EGQS 252250Z 24028G41KT 9999 FEW044 11/05 Q0997 BLU
Loading
Personal Weather Stations






























Interactive Weather Map
Tropical Storm Tracking
New forecast layout! Learn more

10-Day Weather Forecast

Advertisements
Track Severe Weather on mobile